Piarco FIR Weather

TAPA 191600Z 10015KT 9999 SCT021 28/21 Q1018 NOSIG

TBPB 191600Z 09023KT 9999 SCT020 30/22 Q1016 NOSIG

TDPD 191600Z 11013KT 9999 BKN023 28/21 Q1018

TFFF 191630Z AUTO 11019KT 9999 BKN029 29/21 Q1016

TFFR 191630Z AUTO 10012KT 9999 BKN040 OVC066 30/19 Q1017

TGPY 191600Z 09020KT 9999 BKN019 30/24 Q1015

TKPK 191500Z 09016KT 9999 FEW022 29/21 Q1019

TKPN 191600Z 08016KT 9999 FEW022 28/21 Q1018

TLPC 191600Z 09012KT 9999 BKN024 29/21 Q1017 NOSIG

TLPL 191600Z 08018G30KT 9999 SCT030 29/22 Q1017 NOSIG

TTCP 191600Z 11013KT 9999 VCSH SCT018 29/23 Q1015 NOSIG RMK VCSH N W NW

TTPP 191600Z 12014KT 9999 VCSH FEW016 SCT025 32/21 Q1014 NOSIG RMK VCSH-N NE SW

TVSV 121600Z 08005KT 040V120 9999 SCT020 28/20 Q1017 NOSIG